createdAt,value
2023-02-08T00:02:05.477Z,16.73
2023-02-08T00:04:32.107Z,18.40
2023-02-08T00:06:59.045Z,14.00
2023-02-08T00:09:25.721Z,14.70
2023-02-08T00:11:52.439Z,12.87
2023-02-08T00:14:19.096Z,12.27
2023-02-08T00:16:45.771Z,12.27
2023-02-08T00:19:12.409Z,11.33
2023-02-08T00:21:39.114Z,11.47
2023-02-08T00:24:06.862Z,11.57
2023-02-08T00:26:33.522Z,12.63
2023-02-08T00:29:00.218Z,12.53
2023-02-08T00:31:27.010Z,12.20
2023-02-08T00:33:53.710Z,18.17
2023-02-08T00:36:20.360Z,11.27
2023-02-08T00:38:47.038Z,11.60
2023-02-08T00:41:13.983Z,11.50
2023-02-08T00:43:40.915Z,12.87
2023-02-08T00:46:09.543Z,11.20
2023-02-08T00:48:36.302Z,11.83
2023-02-08T00:51:10.572Z,11.67
2023-02-08T00:53:38.879Z,12.77
2023-02-08T00:56:06.565Z,12.20
2023-02-08T00:58:33.333Z,10.23
2023-02-08T01:01:00.023Z,14.23
2023-02-08T01:03:27.234Z,11.47
2023-02-08T01:05:54.175Z,11.83
2023-02-08T01:08:21.989Z,10.60
2023-02-08T01:10:49.060Z,13.57
2023-02-08T01:13:15.735Z,11.83
2023-02-08T01:15:43.648Z,9.80
2023-02-08T01:18:10.584Z,10.70
2023-02-08T01:20:38.188Z,11.93
2023-02-08T01:23:05.113Z,16.07
2023-02-08T01:25:32.884Z,13.63
2023-02-08T01:27:59.660Z,10.23
2023-02-08T01:30:26.362Z,13.70
2023-02-08T01:32:53.336Z,13.20
2023-02-08T01:35:19.993Z,12.37
2023-02-08T01:37:46.651Z,13.40
2023-02-08T01:40:13.373Z,11.73
2023-02-08T01:42:40.089Z,12.70
2023-02-08T01:45:24.184Z,15.13
2023-02-08T01:47:56.157Z,12.47
2023-02-08T01:50:30.666Z,12.13
2023-02-08T01:52:57.979Z,12.20
2023-02-08T01:55:31.868Z,10.87
2023-02-08T01:58:02.490Z,11.30
2023-02-08T02:00:31.072Z,11.47
2023-02-08T02:02:59.093Z,12.97
2023-02-08T02:05:32.377Z,12.70
2023-02-08T02:07:59.789Z,10.90
2023-02-08T02:10:32.434Z,10.33
2023-02-08T02:13:06.294Z,10.73
2023-02-08T02:15:33.506Z,13.97
2023-02-08T02:18:01.788Z,9.07
2023-02-08T02:21:13.382Z,12.53
2023-02-08T02:23:42.780Z,15.70
2023-02-08T02:26:40.751Z,14.13
2023-02-08T02:29:26.678Z,9.53
2023-02-08T02:32:12.303Z,11.43
2023-02-08T02:35:05.134Z,10.90
2023-02-08T02:37:40.683Z,13.60
2023-02-08T02:40:40.503Z,12.03
2023-02-08T02:43:40.826Z,9.70
2023-02-08T02:46:29.253Z,10.93
2023-02-08T02:49:24.078Z,10.37
2023-02-08T02:52:03.490Z,10.30
2023-02-08T02:54:47.643Z,12.27
2023-02-08T02:57:19.618Z,11.73
2023-02-08T02:59:46.821Z,9.83
2023-02-08T03:02:14.117Z,11.63
2023-02-08T03:04:40.704Z,13.07
2023-02-08T03:07:28.378Z,13.07
2023-02-08T03:10:32.736Z,12.43
2023-02-08T03:13:13.819Z,10.37
2023-02-08T03:15:48.977Z,10.77
2023-02-08T03:18:24.956Z,12.37
2023-02-08T03:21:06.860Z,10.27
2023-02-08T03:24:14.550Z,10.40
2023-02-08T03:27:06.695Z,11.87
2023-02-08T03:29:33.275Z,9.10
2023-02-08T03:32:08.131Z,9.93
2023-02-08T03:35:02.537Z,12.80
2023-02-08T03:37:42.382Z,10.97
2023-02-08T03:40:22.474Z,12.73
2023-02-08T03:42:52.456Z,11.47
2023-02-08T03:45:23.941Z,15.17
2023-02-08T03:47:53.573Z,12.10
2023-02-08T03:50:21.968Z,12.47
2023-02-08T03:52:50.463Z,11.07
2023-02-08T03:55:21.605Z,9.67
2023-02-08T03:58:10.864Z,10.33
2023-02-08T04:00:42.965Z,11.77
2023-02-08T04:03:17.202Z,10.43
2023-02-08T04:05:44.289Z,10.23
2023-02-08T04:08:11.133Z,10.10
2023-02-08T04:10:38.274Z,11.27
2023-02-08T04:13:04.983Z,9.53
2023-02-08T04:15:31.750Z,17.30
2023-02-08T04:17:58.501Z,14.60
2023-02-08T04:20:25.447Z,12.77
2023-02-08T04:22:52.195Z,13.17
2023-02-08T04:25:18.905Z,11.53
2023-02-08T04:27:45.731Z,14.30
2023-02-08T04:30:13.265Z,16.00
2023-02-08T04:32:39.927Z,15.40
2023-02-08T04:35:06.792Z,14.37
2023-02-08T04:37:33.849Z,15.73
2023-02-08T04:40:00.541Z,12.63
2023-02-08T04:42:27.232Z,15.13
2023-02-08T04:44:53.891Z,12.13
2023-02-08T04:47:20.519Z,12.83
2023-02-08T04:49:47.135Z,13.57
2023-02-08T04:52:13.782Z,14.50
2023-02-08T04:54:40.990Z,12.37
2023-02-08T04:57:09.872Z,19.53
2023-02-08T04:59:36.527Z,12.77
2023-02-08T05:02:03.158Z,14.20
2023-02-08T05:04:30.804Z,12.50
2023-02-08T05:06:57.434Z,14.87
2023-02-08T05:09:24.141Z,9.00
2023-02-08T05:11:50.824Z,11.40
2023-02-08T05:14:17.492Z,10.93
2023-02-08T05:16:44.137Z,12.80
2023-02-08T05:19:14.164Z,11.20
2023-02-08T05:21:40.784Z,10.63
2023-02-08T05:24:07.647Z,8.07
2023-02-08T05:26:34.283Z,10.47
2023-02-08T05:29:00.922Z,9.43
2023-02-08T05:31:27.660Z,11.17
2023-02-08T05:33:54.532Z,9.83
2023-02-08T05:36:23.117Z,10.30
2023-02-08T05:38:50.398Z,9.27
2023-02-08T05:41:17.573Z,12.50
2023-02-08T05:43:45.861Z,10.20
2023-02-08T05:46:12.538Z,11.10
2023-02-08T05:48:39.238Z,9.17
2023-02-08T05:51:06.162Z,13.17
2023-02-08T05:53:32.953Z,9.33
2023-02-08T05:55:59.761Z,10.30
2023-02-08T05:58:26.874Z,11.03
2023-02-08T06:00:53.827Z,10.07
2023-02-08T06:03:20.825Z,11.23
2023-02-08T06:05:47.582Z,8.93
2023-02-08T06:08:14.282Z,10.27
2023-02-08T06:10:41.182Z,7.83
2023-02-08T06:13:08.025Z,10.07
2023-02-08T06:15:34.674Z,8.87
2023-02-08T06:18:01.353Z,13.60
2023-02-08T06:20:28.038Z,10.87
2023-02-08T06:22:55.759Z,10.00
2023-02-08T06:25:22.503Z,9.97
2023-02-08T06:27:49.178Z,10.17
2023-02-08T06:30:16.013Z,9.60
2023-02-08T06:32:42.744Z,10.17
2023-02-08T06:35:09.542Z,9.63
2023-02-08T06:37:36.530Z,10.80
2023-02-08T06:40:04.584Z,9.33
2023-02-08T06:42:31.335Z,12.75
2023-02-08T06:44:58.782Z,10.73
2023-02-08T06:47:26.774Z,9.53
2023-02-08T06:49:54.007Z,9.63
2023-02-08T06:52:21.410Z,9.70
2023-02-08T06:54:48.045Z,10.60
2023-02-08T06:57:14.762Z,10.77
2023-02-08T06:59:42.511Z,9.87
2023-02-08T07:02:14.220Z,12.17
2023-02-08T07:04:40.949Z,11.30
2023-02-08T07:07:07.985Z,13.60
2023-02-08T07:09:35.911Z,12.77
2023-02-08T07:12:05.064Z,10.23
2023-02-08T07:14:38.480Z,8.87
2023-02-08T07:17:05.170Z,9.70
2023-02-08T07:19:32.062Z,10.97
2023-02-08T07:22:07.895Z,9.93
2023-02-08T07:24:39.713Z,10.37
2023-02-08T07:27:08.274Z,9.90
2023-02-08T07:29:35.288Z,17.13
2023-02-08T07:32:03.395Z,10.17
2023-02-08T07:34:32.079Z,14.67
2023-02-08T07:36:58.773Z,14.03
2023-02-08T07:39:25.876Z,12.50
2023-02-08T07:41:52.598Z,13.83
2023-02-08T07:44:19.449Z,15.20
2023-02-08T07:46:46.231Z,15.10
2023-02-08T07:49:12.906Z,13.03
2023-02-08T07:51:39.553Z,15.43
2023-02-08T07:54:06.270Z,10.10
2023-02-08T07:56:32.964Z,13.63
2023-02-08T07:58:59.672Z,12.50
2023-02-08T08:01:26.436Z,12.03
2023-02-08T08:03:53.230Z,15.33
2023-02-08T08:06:21.319Z,14.10
2023-02-08T08:08:48.186Z,11.10
2023-02-08T08:11:16.152Z,10.43
2023-02-08T08:13:43.363Z,10.40
2023-02-08T08:16:10.478Z,9.77
2023-02-08T08:18:37.174Z,10.20
2023-02-08T08:21:04.735Z,16.67
2023-02-08T08:23:33.177Z,10.70
2023-02-08T08:26:00.463Z,10.03
2023-02-08T08:28:27.597Z,12.17
2023-02-08T08:30:54.539Z,9.73
2023-02-08T08:33:21.320Z,9.73
2023-02-08T08:35:48.016Z,10.13
2023-02-08T08:38:14.758Z,9.73
2023-02-08T08:40:41.697Z,10.70
2023-02-08T08:43:08.604Z,9.80
2023-02-08T08:45:36.176Z,10.73
2023-02-08T08:48:06.245Z,10.83
2023-02-08T08:50:32.981Z,10.20
2023-02-08T08:52:59.705Z,8.93
2023-02-08T08:55:28.211Z,12.00
2023-02-08T08:57:55.070Z,11.50
2023-02-08T09:00:21.948Z,10.33
2023-02-08T09:02:48.908Z,12.00
2023-02-08T09:05:15.805Z,8.97
2023-02-08T09:07:42.444Z,8.90
2023-02-08T09:10:09.173Z,13.30
2023-02-08T09:12:36.435Z,8.63
2023-02-08T09:15:03.530Z,9.30
2023-02-08T09:17:30.166Z,12.20
2023-02-08T09:19:56.860Z,12.33
2023-02-08T09:22:23.549Z,8.77
2023-02-08T09:24:52.172Z,9.00
2023-02-08T09:27:19.035Z,9.67
2023-02-08T09:29:45.786Z,9.13
2023-02-08T09:32:12.488Z,10.97
2023-02-08T09:34:39.170Z,8.73
2023-02-08T09:37:06.982Z,10.37
2023-02-08T09:39:34.748Z,10.10
2023-02-08T09:42:20.920Z,9.97
2023-02-08T09:45:25.059Z,12.63
2023-02-08T09:48:04.536Z,10.80
2023-02-08T09:50:42.231Z,11.90
2023-02-08T09:53:17.777Z,6.87
2023-02-08T09:55:46.719Z,12.00
2023-02-08T09:58:27.056Z,11.70
2023-02-08T10:00:54.986Z,7.50
2023-02-08T10:03:35.130Z,7.20
2023-02-08T10:06:03.577Z,13.13
2023-02-08T10:08:35.358Z,9.03
2023-02-08T10:11:21.485Z,9.93
2023-02-08T10:14:15.165Z,7.40
2023-02-08T10:17:06.446Z,12.47
2023-02-08T10:19:42.279Z,8.80
2023-02-08T10:22:32.014Z,12.77
2023-02-08T10:25:12.165Z,8.87
2023-02-08T10:27:44.668Z,8.43
2023-02-08T10:30:21.028Z,8.10
2023-02-08T10:33:13.933Z,8.90
2023-02-08T10:35:49.919Z,8.87
2023-02-08T10:38:19.663Z,12.60
2023-02-08T10:40:49.829Z,6.23
2023-02-08T10:43:24.528Z,13.00
2023-02-08T10:46:00.483Z,9.53
2023-02-08T10:48:54.471Z,11.07
2023-02-08T10:51:21.749Z,9.43
2023-02-08T10:53:49.093Z,14.80
2023-02-08T10:56:30.914Z,7.97
2023-02-08T10:59:06.513Z,8.63
2023-02-08T11:01:33.310Z,9.67
2023-02-08T11:04:06.693Z,8.40
2023-02-08T11:06:33.501Z,8.47
2023-02-08T11:09:00.201Z,8.27
2023-02-08T11:11:33.060Z,8.33
2023-02-08T11:14:14.939Z,8.27
2023-02-08T11:16:43.231Z,8.83
2023-02-08T11:19:22.922Z,9.43
2023-02-08T11:21:51.778Z,9.60
2023-02-08T11:24:43.149Z,9.53
2023-02-08T11:27:39.303Z,9.00
2023-02-08T11:30:18.054Z,10.33
2023-02-08T11:32:47.398Z,7.97
2023-02-08T11:35:21.862Z,9.80
2023-02-08T11:37:51.116Z,8.77
2023-02-08T11:40:34.118Z,9.07
2023-02-08T11:43:02.010Z,8.17
2023-02-08T11:45:37.103Z,7.93
2023-02-08T11:48:05.673Z,8.80
2023-02-08T11:50:35.848Z,9.17
2023-02-08T11:53:05.642Z,7.53
2023-02-08T11:55:34.327Z,9.07
2023-02-08T11:58:11.516Z,8.53
2023-02-08T12:00:40.400Z,10.60
2023-02-08T12:03:22.494Z,9.27
2023-02-08T12:05:55.094Z,6.80
2023-02-08T12:08:57.648Z,8.20
2023-02-08T12:11:38.840Z,8.27
2023-02-08T12:14:20.295Z,7.97
2023-02-08T12:16:53.013Z,8.27
2023-02-08T12:19:34.644Z,6.87
2023-02-08T12:22:16.717Z,6.13
2023-02-08T12:25:00.573Z,6.63
2023-02-08T12:27:57.720Z,7.40
2023-02-08T12:30:41.040Z,6.70
2023-02-08T12:33:41.109Z,8.60
2023-02-08T12:36:26.509Z,6.73
2023-02-08T12:39:31.927Z,9.20
2023-02-08T12:42:13.805Z,7.93
2023-02-08T12:44:47.191Z,8.77
2023-02-08T12:47:28.857Z,5.97
2023-02-08T12:50:16.971Z,7.07
2023-02-08T12:52:48.187Z,11.07
2023-02-08T12:55:18.184Z,6.80
2023-02-08T12:57:49.488Z,7.00
2023-02-08T13:00:37.487Z,7.67
2023-02-08T13:03:14.034Z,9.53
2023-02-08T13:06:01.378Z,6.53
2023-02-08T13:08:35.166Z,5.93
2023-02-08T13:11:19.145Z,6.97
2023-02-08T13:13:55.563Z,8.47
2023-02-08T13:16:26.415Z,6.60
2023-02-08T13:18:56.964Z,5.33
2023-02-08T13:21:30.480Z,8.23
2023-02-08T13:23:58.765Z,7.23
2023-02-08T13:26:31.534Z,6.50
2023-02-08T13:29:02.254Z,8.33
2023-02-08T13:31:55.151Z,6.63
2023-02-08T13:34:31.177Z,6.50
2023-02-08T13:37:08.810Z,8.33
2023-02-08T13:39:44.134Z,8.07
2023-02-08T13:42:28.461Z,7.43
2023-02-08T13:44:57.225Z,8.20
2023-02-08T13:47:28.476Z,7.83
2023-02-08T13:49:56.880Z,9.87
2023-02-08T13:52:48.004Z,7.77
2023-02-08T13:55:33.764Z,7.67
2023-02-08T13:58:26.540Z,11.00
2023-02-08T14:01:02.127Z,9.00
2023-02-08T14:03:32.752Z,8.80
2023-02-08T14:06:06.072Z,8.53
2023-02-08T14:08:52.562Z,7.83
2023-02-08T14:11:48.636Z,8.40
2023-02-08T14:14:20.615Z,10.10
2023-02-08T14:17:07.208Z,10.00
2023-02-08T14:19:36.520Z,7.93
2023-02-08T14:22:10.730Z,9.60
2023-02-08T14:25:11.046Z,8.87
2023-02-08T14:27:42.093Z,9.53
2023-02-08T14:30:17.960Z,9.67
2023-02-08T14:32:51.831Z,9.83
2023-02-08T14:35:23.043Z,11.63
2023-02-08T14:38:11.083Z,10.17
2023-02-08T14:40:54.839Z,8.97
2023-02-08T14:43:42.433Z,9.17
2023-02-08T14:46:42.997Z,8.07
2023-02-08T14:49:15.882Z,13.07
2023-02-08T14:51:50.708Z,10.83
2023-02-08T14:54:34.689Z,8.90
2023-02-08T14:57:06.508Z,8.67
2023-02-08T14:59:35.437Z,11.20
2023-02-08T15:02:15.304Z,10.17
2023-02-08T15:04:44.231Z,13.30
2023-02-08T15:07:33.632Z,9.90
2023-02-08T15:10:05.507Z,8.50
2023-02-08T15:12:35.584Z,9.27
2023-02-08T15:15:04.595Z,9.97
2023-02-08T15:17:36.556Z,8.83
2023-02-08T15:20:07.080Z,10.57
2023-02-08T15:22:39.752Z,10.27
2023-02-08T15:25:25.430Z,9.47
2023-02-08T15:27:58.915Z,8.87
2023-02-08T15:30:37.057Z,10.20
2023-02-08T15:33:10.104Z,9.47
2023-02-08T15:35:36.918Z,8.23
2023-02-08T15:38:05.447Z,12.67
2023-02-08T15:40:34.419Z,10.43
2023-02-08T15:43:12.624Z,9.00
2023-02-08T15:45:39.778Z,11.50
2023-02-08T15:48:07.544Z,10.17
2023-02-08T15:50:34.378Z,9.93
2023-02-08T15:53:07.350Z,9.07
2023-02-08T15:55:39.758Z,9.17
2023-02-08T15:58:16.213Z,10.20
2023-02-08T16:00:45.048Z,9.53
2023-02-08T16:03:23.457Z,10.50
2023-02-08T16:05:54.006Z,9.87
2023-02-08T16:08:35.269Z,10.63
2023-02-08T16:11:04.786Z,10.10
2023-02-08T16:13:34.643Z,10.73
2023-02-08T16:16:36.947Z,10.37
2023-02-08T16:19:04.755Z,9.13
2023-02-08T16:21:39.063Z,9.53
2023-02-08T16:24:10.651Z,10.17
2023-02-08T16:26:46.775Z,12.30
2023-02-08T16:29:40.048Z,11.10
2023-02-08T16:32:28.963Z,9.70
2023-02-08T16:34:55.798Z,10.70
2023-02-08T16:37:31.218Z,10.57
2023-02-08T16:40:03.398Z,10.60
2023-02-08T16:42:39.816Z,10.17
2023-02-08T16:45:09.494Z,16.00
2023-02-08T16:47:37.862Z,11.90
2023-02-08T16:50:05.849Z,13.07
2023-02-08T16:52:33.918Z,12.63
2023-02-08T16:55:01.015Z,11.73
2023-02-08T16:57:42.678Z,10.37
2023-02-08T17:00:18.917Z,15.33
2023-02-08T17:02:45.752Z,13.03
2023-02-08T17:05:12.614Z,12.60
2023-02-08T17:07:39.397Z,12.87
2023-02-08T17:10:07.859Z,8.90
2023-02-08T17:12:34.538Z,11.17
2023-02-08T17:15:01.154Z,14.43
2023-02-08T17:17:27.854Z,10.17
2023-02-08T17:19:54.592Z,11.63
2023-02-08T17:22:21.253Z,10.07
2023-02-08T17:24:47.948Z,9.87
2023-02-08T17:27:14.996Z,9.20
2023-02-08T17:29:41.933Z,11.97
2023-02-08T17:32:08.592Z,9.13
2023-02-08T17:34:36.561Z,11.73
2023-02-08T17:37:03.355Z,10.67
2023-02-08T17:39:30.066Z,9.57
2023-02-08T17:41:57.576Z,14.13
2023-02-08T17:44:24.330Z,9.77
2023-02-08T17:46:50.960Z,11.20
2023-02-08T17:49:17.591Z,10.33
2023-02-08T17:51:44.274Z,11.20
2023-02-08T17:54:12.140Z,8.60
2023-02-08T17:56:38.870Z,16.90
2023-02-08T17:59:05.685Z,14.33
2023-02-08T18:01:32.669Z,10.37
2023-02-08T18:04:00.806Z,11.83
2023-02-08T18:06:28.610Z,11.83
2023-02-08T18:08:55.792Z,10.50
2023-02-08T18:11:23.846Z,13.37
2023-02-08T18:13:52.916Z,12.13
2023-02-08T18:16:23.423Z,11.93
2023-02-08T18:18:50.223Z,9.00
2023-02-08T18:21:19.601Z,13.27
2023-02-08T18:23:47.643Z,9.10
2023-02-08T18:26:17.158Z,14.30
2023-02-08T18:28:44.747Z,10.43
2023-02-08T18:31:14.860Z,8.53
2023-02-08T18:33:43.650Z,10.57
2023-02-08T18:36:11.515Z,8.80
2023-02-08T18:38:40.522Z,12.70
2023-02-08T18:41:09.264Z,12.63
2023-02-08T18:43:36.778Z,8.77
2023-02-08T18:46:13.396Z,9.57
2023-02-08T18:48:41.052Z,12.67
2023-02-08T18:51:09.329Z,11.10
2023-02-08T18:53:38.092Z,12.80
2023-02-08T18:56:07.136Z,11.97
2023-02-08T18:58:33.883Z,12.93
2023-02-08T19:01:11.156Z,11.60
2023-02-08T19:03:38.856Z,11.07
2023-02-08T19:06:08.584Z,9.80
2023-02-08T19:08:40.200Z,12.07
2023-02-08T19:11:23.954Z,12.60
2023-02-08T19:13:51.549Z,10.77
2023-02-08T19:16:21.572Z,12.13
2023-02-08T19:18:48.924Z,12.80
2023-02-08T19:21:17.175Z,13.97
2023-02-08T19:23:48.619Z,13.03
2023-02-08T19:26:23.797Z,13.00
2023-02-08T19:28:51.295Z,14.67
2023-02-08T19:31:22.640Z,17.70
2023-02-08T19:33:53.405Z,21.63
2023-02-08T19:36:22.879Z,13.37
2023-02-08T19:38:50.741Z,13.87
2023-02-08T19:41:20.483Z,12.47
2023-02-08T19:43:47.731Z,12.20
2023-02-08T19:46:16.953Z,15.30
2023-02-08T19:48:43.658Z,14.47
2023-02-08T19:51:10.799Z,14.93
2023-02-08T19:53:38.024Z,14.20
2023-02-08T19:56:07.762Z,16.93
2023-02-08T19:58:35.809Z,12.53
2023-02-08T20:01:18.396Z,12.03
2023-02-08T20:03:46.531Z,15.63
2023-02-08T20:06:18.698Z,14.47
2023-02-08T20:08:45.712Z,12.90
2023-02-08T20:11:18.483Z,11.93
2023-02-08T20:13:45.366Z,13.67
2023-02-08T20:16:12.548Z,13.97
2023-02-08T20:18:39.660Z,17.23
2023-02-08T20:21:06.857Z,13.63
2023-02-08T20:23:33.587Z,15.13
2023-02-08T20:26:16.995Z,11.37
2023-02-08T20:28:46.762Z,12.70
2023-02-08T20:31:33.574Z,12.70
2023-02-08T20:34:03.427Z,12.40
2023-02-08T20:36:32.975Z,14.13
2023-02-08T20:39:00.169Z,13.30
2023-02-08T20:41:29.067Z,15.17
2023-02-08T20:43:55.864Z,16.47
2023-02-08T20:46:28.414Z,14.67
2023-02-08T20:48:57.233Z,16.67
2023-02-08T20:51:25.874Z,16.50
2023-02-08T20:53:53.536Z,15.90
2023-02-08T20:56:24.001Z,17.13
2023-02-08T20:58:51.289Z,16.10
2023-02-08T21:01:21.228Z,16.33
2023-02-08T21:03:48.397Z,16.30
2023-02-08T21:06:20.360Z,22.03
2023-02-08T21:08:55.354Z,17.93
2023-02-08T21:11:26.950Z,18.47
2023-02-08T21:13:54.303Z,19.93
2023-02-08T21:16:21.436Z,23.43
2023-02-08T21:18:48.794Z,22.67
2023-02-08T21:21:15.885Z,19.77
2023-02-08T21:23:44.176Z,20.30
2023-02-08T21:26:13.638Z,17.73
2023-02-08T21:28:40.525Z,19.47
2023-02-08T21:31:11.950Z,20.30
2023-02-08T21:33:38.666Z,17.43
2023-02-08T21:36:10.213Z,18.23
2023-02-08T21:38:36.962Z,16.53
2023-02-08T21:41:11.456Z,20.93
2023-02-08T21:43:38.444Z,20.37
2023-02-08T21:46:06.681Z,19.90
2023-02-08T21:48:53.975Z,18.03
2023-02-08T21:51:39.699Z,22.43
2023-02-08T21:54:27.297Z,18.63
2023-02-08T21:56:53.951Z,18.27
2023-02-08T21:59:20.600Z,22.40
2023-02-08T22:01:47.297Z,17.23
2023-02-08T22:04:13.956Z,16.77
2023-02-08T22:06:49.702Z,19.63
2023-02-08T22:09:18.015Z,23.10
2023-02-08T22:11:45.355Z,24.13
2023-02-08T22:14:12.754Z,25.53
2023-02-08T22:16:40.105Z,19.87
2023-02-08T22:19:07.913Z,21.57
2023-02-08T22:21:34.773Z,19.77
2023-02-08T22:24:01.695Z,17.37
2023-02-08T22:26:28.494Z,19.53
2023-02-08T22:28:55.207Z,17.37
2023-02-08T22:31:22.062Z,17.87
2023-02-08T22:33:51.476Z,18.33
2023-02-08T22:36:18.214Z,17.47
2023-02-08T22:38:44.880Z,23.50
2023-02-08T22:41:13.397Z,22.67
2023-02-08T22:43:40.198Z,22.20
2023-02-08T22:46:07.161Z,17.77
2023-02-08T22:48:34.329Z,15.67
2023-02-08T22:51:06.872Z,15.57
2023-02-08T22:53:33.546Z,15.70
2023-02-08T22:56:00.276Z,15.90
2023-02-08T22:58:27.259Z,16.47
2023-02-08T23:00:53.932Z,17.07
2023-02-08T23:03:20.745Z,17.07
2023-02-08T23:05:49.324Z,14.00
2023-02-08T23:08:18.155Z,15.97
2023-02-08T23:10:45.162Z,16.97
2023-02-08T23:13:12.302Z,15.00
2023-02-08T23:15:41.091Z,20.00
2023-02-08T23:18:08.952Z,18.37
2023-02-08T23:20:40.439Z,15.43
2023-02-08T23:23:07.910Z,18.97
2023-02-08T23:25:35.289Z,17.20
2023-02-08T23:28:02.011Z,19.50
2023-02-08T23:30:28.724Z,21.80
2023-02-08T23:32:55.554Z,17.37
2023-02-08T23:35:22.470Z,23.27
2023-02-08T23:37:49.216Z,17.87
2023-02-08T23:40:16.158Z,20.70
2023-02-08T23:42:42.838Z,22.80
2023-02-08T23:45:09.991Z,18.63
2023-02-08T23:47:37.775Z,19.93
2023-02-08T23:50:04.672Z,20.07
2023-02-08T23:52:31.861Z,17.40
2023-02-08T23:54:58.507Z,16.03
2023-02-08T23:57:25.288Z,18.67
2023-02-08T23:59:51.925Z,20.40
